Hamilton, Nebraska
Current Conditions -  °F | °C
As of 2:35 AM on Wednesday 22 Oct 2014 (Local Time) from KHJH Reporting Station
Clear Clear  
Wind Chill: 58°   Ceiling: Unl
Heat Index: 58°   Visibility: 10mi
Dew Point: 52°   Wind: 9mph
Humidity: 80%   Direction: 150°SSE
Pressure: 30.03"   Gusts: NA
Location:  40.3936°N, 97.5387°W
Report Text: KHJH 220735Z AUTO 15008KT 10SM CLR 15/11 A3003 RMK AO2 T01450110
Loading
Personal Weather Stations






























Interactive Weather Map
Tropical Storm Tracking
New forecast layout! Learn more

10-Day Weather Forecast

Advertisements
Track Severe Weather on mobile